Time;durP1;ratioP1;P1;durP2;ratioP2;P2;SDS_P1;SDS_P2;PMS_P1;PMS_P2;Temp;Humidity;BMP_temperature;BMP_pressure;BME280_temperature;BME280_humidity;BME280_pressure;Samples;Min_cycle;Max_cycle;Signal;HPM_P1;HPM_P2
2023/05/18 00:01:19;;;;;;;9.00;2.53;;;;;;;7.52;69.93;102133.72;4974121;28;20195;-68
2023/05/18 00:03:52;;;;;;;5.32;2.60;;;;;;;7.45;70.34;102132.66;4973053;28;20211;-69
2023/05/18 00:06:24;;;;;;;3.92;1.77;;;;;;;7.52;70.37;102139.09;4974385;28;20281;-68
2023/05/18 00:08:53;;;;;;;10.45;2.67;;;;;;;7.48;70.64;102133.19;4974131;28;20215;-68
2023/05/18 00:11:22;;;;;;;7.30;2.40;;;;;;;7.43;71.02;102141.72;4972642;28;20188;-67
2023/05/18 00:13:50;;;;;;;7.25;1.75;;;;;;;7.37;70.91;102139.63;4965722;28;20196;-66
2023/05/18 00:16:21;;;;;;;9.10;2.67;;;;;;;7.30;71.48;102141.25;4974026;28;20191;-67
2023/05/18 00:18:53;;;;;;;5.25;2.50;;;;;;;7.33;71.41;102140.06;4967531;28;20187;-68
2023/05/18 00:21:22;;;;;;;5.47;3.17;;;;;;;7.24;71.82;102144.53;4973771;28;20677;-66
2023/05/18 00:23:51;;;;;;;5.15;2.78;;;;;;;7.30;71.83;102143.94;4971561;28;20243;-68
2023/05/18 00:26:20;;;;;;;7.28;2.60;;;;;;;7.43;71.33;102144.41;4974182;28;20230;-69
2023/05/18 00:28:52;;;;;;;6.22;2.45;;;;;;;7.46;70.97;102145.09;4974901;28;20218;-66
2023/05/18 00:31:22;;;;;;;5.68;2.35;;;;;;;7.31;71.84;102142.09;4972245;28;20202;-67
2023/05/18 00:33:51;;;;;;;12.85;2.40;;;;;;;7.36;71.71;102146.00;4972290;28;20200;-68
2023/05/18 00:36:20;;;;;;;10.43;2.75;;;;;;;7.34;71.94;102142.63;4974211;28;20203;-66
2023/05/18 00:38:49;;;;;;;10.18;2.00;;;;;;;7.21;72.31;102135.91;4972653;28;20660;-67
2023/05/18 00:41:20;;;;;;;3.13;2.22;;;;;;;7.34;71.91;102148.00;4974724;28;20183;-67
2023/05/18 00:43:49;;;;;;;6.03;2.33;;;;;;;7.21;72.66;102141.28;4973631;28;20203;-67
2023/05/18 00:46:18;;;;;;;4.72;2.60;;;;;;;7.18;72.67;102157.72;4975039;28;20243;-68
2023/05/18 00:48:50;;;;;;;4.18;2.10;;;;;;;7.26;72.69;102152.47;4972086;28;20209;-66
2023/05/18 00:51:19;;;;;;;4.00;1.98;;;;;;;7.21;72.83;102158.28;4974073;28;20225;-69
2023/05/18 00:53:49;;;;;;;6.28;2.63;;;;;;;7.22;73.00;102154.59;4962718;28;20311;-68
2023/05/18 00:56:20;;;;;;;5.85;2.08;;;;;;;7.12;73.31;102159.16;4975866;28;20204;-67
2023/05/18 00:58:49;;;;;;;5.25;2.15;;;;;;;7.19;73.29;102157.59;4964757;28;20305;-68
2023/05/18 01:01:23;;;;;;;10.40;2.40;;;;;;;7.25;72.78;102159.69;4981394;28;20204;-68
2023/05/18 01:03:55;;;;;;;5.70;2.42;;;;;;;7.13;73.15;102152.78;4979306;28;20203;-68
2023/05/18 01:06:25;;;;;;;5.50;1.90;;;;;;;7.10;73.58;102158.50;4978434;28;20282;-69
2023/05/18 01:08:55;;;;;;;6.70;2.55;;;;;;;7.17;73.19;102172.19;4976913;28;20202;-69
2023/05/18 01:11:32;;;;;;;6.85;1.75;;;;;;;7.17;73.33;102170.34;4975599;28;20309;-69
2023/05/18 01:14:10;;;;;;;8.60;2.50;;;;;;;7.18;73.46;102174.72;4975066;28;20259;-67
2023/05/18 01:16:47;;;;;;;6.32;1.83;;;;;;;7.21;73.31;102170.91;4970361;28;20193;-66
2023/05/18 01:19:36;;;;;;;9.98;2.45;;;;;;;7.14;73.50;102176.03;4962773;28;20192;-68
2023/05/18 01:22:13;;;;;;;7.60;3.53;;;;;;;7.09;73.85;102178.31;4974682;28;20191;-67
2023/05/18 01:24:48;;;;;;;7.63;2.17;;;;;;;7.03;74.10;102172.66;4967028;28;20219;-67
2023/05/18 01:27:23;;;;;;;5.45;1.95;;;;;;;6.90;74.84;102175.72;4976275;28;20202;-67
2023/05/18 01:29:55;;;;;;;5.03;2.17;;;;;;;6.89;75.37;102184.78;4979242;28;20208;-68
2023/05/18 01:32:25;;;;;;;6.03;1.90;;;;;;;7.02;74.61;102185.28;4975991;28;20193;-68
2023/05/18 01:34:54;;;;;;;4.35;1.30;;;;;;;6.91;75.26;102180.09;4976447;28;20223;-67
2023/05/18 01:37:23;;;;;;;5.35;1.85;;;;;;;6.97;75.29;102180.34;4975127;28;20195;-68
2023/05/18 01:39:52;;;;;;;7.55;1.98;;;;;;;6.89;75.61;102185.63;4969967;28;20282;-70
2023/05/18 01:42:30;;;;;;;6.28;2.58;;;;;;;6.99;75.02;102186.44;4977031;28;20249;-68
2023/05/18 01:45:03;;;;;;;10.65;3.05;;;;;;;7.06;74.87;102185.84;4974917;28;20697;-68
2023/05/18 01:47:33;;;;;;;4.03;2.75;;;;;;;7.00;75.21;102173.84;4972411;28;20191;-68
2023/05/18 01:50:06;;;;;;;6.68;2.20;;;;;;;6.92;75.49;102177.25;4976004;28;20231;-67
2023/05/18 01:52:42;;;;;;;8.80;2.50;;;;;;;6.78;76.13;102182.25;4973099;28;20215;-68
2023/05/18 01:55:12;;;;;;;2.63;1.80;;;;;;;6.77;76.29;102175.19;4966460;28;20227;-67
2023/05/18 01:57:46;;;;;;;11.98;3.25;;;;;;;6.69;76.53;102178.59;4969455;28;20211;-66
2023/05/18 02:00:18;;;;;;;4.57;2.53;;;;;;;6.73;76.87;102177.31;4972777;28;20680;-69
2023/05/18 02:02:50;;;;;;;2.40;1.67;;;;;;;6.67;76.48;102182.44;4966252;28;20207;-68
2023/05/18 02:05:19;;;;;;;7.00;2.22;;;;;;;6.59;77.83;102185.00;4970368;28;20210;-68
2023/05/18 02:07:49;;;;;;;8.20;2.50;;;;;;;6.67;77.14;102182.44;4963490;28;20199;-67
2023/05/18 02:10:19;;;;;;;8.80;3.15;;;;;;;6.66;77.90;102189.66;4990492;28;20217;-68
2023/05/18 02:12:51;;;;;;;5.47;1.92;;;;;;;6.54;78.42;102186.28;4974827;28;20199;-68
2023/05/18 02:15:23;;;;;;;3.13;2.60;;;;;;;6.51;78.45;102186.56;4975877;28;20222;-66
2023/05/18 02:17:56;;;;;;;4.50;1.98;;;;;;;6.59;77.58;102187.69;4973766;28;20199;-68
2023/05/18 02:20:31;;;;;;;4.00;1.88;;;;;;;6.59;77.59;102182.28;4975170;28;20274;-69
2023/05/18 02:23:00;;;;;;;6.55;1.80;;;;;;;6.52;78.20;102182.91;4989828;28;20205;-69
2023/05/18 02:25:30;;;;;;;7.57;1.85;;;;;;;6.61;77.58;102188.41;4983931;28;20697;-65
2023/05/18 02:28:01;;;;;;;6.47;2.55;;;;;;;6.44;78.34;102189.97;4973839;28;20682;-68
2023/05/18 02:30:34;;;;;;;3.95;2.30;;;;;;;6.64;77.93;102186.25;4975486;28;20270;-68
2023/05/18 02:33:07;;;;;;;7.70;2.35;;;;;;;6.76;77.15;102197.72;4973210;28;20206;-67
2023/05/18 02:35:37;;;;;;;7.43;2.28;;;;;;;6.67;78.37;102187.81;4971085;28;20221;-67
2023/05/18 02:38:06;;;;;;;4.57;2.00;;;;;;;6.62;78.32;102198.16;4974893;28;20195;-68
2023/05/18 02:40:36;;;;;;;8.15;3.50;;;;;;;6.57;78.18;102206.66;4967806;28;20538;-67
2023/05/18 02:43:06;;;;;;;5.50;1.95;;;;;;;6.53;78.51;102200.72;4974938;28;20195;-68
2023/05/18 02:45:35;;;;;;;9.70;2.50;;;;;;;6.51;78.72;102202.72;4977252;28;20716;-66
2023/05/18 02:48:36;;;;;;;3.92;2.25;;;;;;;6.50;78.58;102201.00;4987107;28;20204;-68
2023/05/18 02:51:05;;;;;;;2.97;2.05;;;;;;;6.72;77.14;102207.91;4973270;28;20693;-68
2023/05/18 02:53:34;;;;;;;8.75;3.08;;;;;;;6.55;77.80;102197.88;4973833;28;20195;-69
2023/05/18 02:56:11;;;;;;;8.48;2.58;;;;;;;6.43;78.50;102205.28;4973877;28;20219;-67
2023/05/18 02:59:02;;;;;;;7.07;2.40;;;;;;;6.57;78.42;102203.97;4974330;28;20198;-69
2023/05/18 03:01:39;;;;;;;6.97;3.50;;;;;;;6.59;78.21;102198.44;4973147;28;20295;-67
2023/05/18 03:04:09;;;;;;;5.80;2.50;;;;;;;6.56;78.06;102210.34;4966191;28;20203;-67
2023/05/18 03:06:46;;;;;;;12.73;3.53;;;;;;;6.56;78.19;102210.34;4978301;28;20198;-67
2023/05/18 03:09:18;;;;;;;13.50;2.45;;;;;;;6.76;77.31;102213.84;4980060;28;20210;-67
2023/05/18 03:11:48;;;;;;;11.38;2.47;;;;;;;6.72;77.52;102207.91;4976596;28;20218;-67
2023/05/18 03:14:18;;;;;;;3.53;2.55;;;;;;;6.67;78.56;102207.50;4970988;28;20224;-69
2023/05/18 03:16:52;;;;;;;4.38;2.20;;;;;;;6.65;78.38;102211.31;4973361;28;20191;-68
2023/05/18 03:19:22;;;;;;;5.80;2.75;;;;;;;6.75;78.31;102213.00;4974517;28;20293;-69
2023/05/18 03:21:52;;;;;;;5.55;2.40;;;;;;;6.83;77.76;102214.94;4975015;28;20199;-69
2023/05/18 03:24:25;;;;;;;5.30;2.45;;;;;;;6.96;77.16;102221.72;4976653;28;20232;-67
2023/05/18 03:26:55;;;;;;;8.35;3.05;;;;;;;7.06;76.72;102213.63;4975221;28;20196;-66
2023/05/18 03:29:27;;;;;;;9.80;2.63;;;;;;;7.27;76.75;102213.38;4974487;28;20574;-66
2023/05/18 03:32:00;;;;;;;3.97;1.65;;;;;;;7.65;74.85;102215.03;4984534;28;20760;-67
2023/05/18 03:34:29;;;;;;;20.00;3.45;;;;;;;7.90;74.21;102208.03;4971364;28;20720;-67
2023/05/18 03:36:59;;;;;;;4.18;2.03;;;;;;;8.19;72.77;102214.91;4973808;28;20250;-68
2023/05/18 03:39:29;;;;;;;5.32;1.95;;;;;;;8.60;70.39;102215.28;4974641;28;20235;-66
2023/05/18 03:41:58;;;;;;;5.57;2.75;;;;;;;9.18;68.55;102217.34;4973903;28;20192;-64
2023/05/18 03:44:29;;;;;;;10.32;3.20;;;;;;;9.71;65.95;102215.19;4973099;28;20295;-66
2023/05/18 03:46:58;;;;;;;8.68;2.90;;;;;;;10.14;63.93;102221.38;4972411;28;20199;-66
2023/05/18 03:49:28;;;;;;;4.13;2.55;;;;;;;10.28;63.62;102228.84;4969386;28;20202;-67
2023/05/18 03:51:57;;;;;;;3.65;2.30;;;;;;;10.41;63.05;102223.78;4964820;28;20220;-68
2023/05/18 03:54:26;;;;;;;4.25;2.15;;;;;;;11.14;60.72;102232.66;4973967;28;20244;-67
2023/05/18 03:56:56;;;;;;;4.85;2.88;;;;;;;11.32;59.12;102229.75;4972730;28;20221;-70
2023/05/18 03:59:25;;;;;;;5.20;2.08;;;;;;;11.40;58.82;102227.00;4971083;28;20199;-67
2023/05/18 04:01:55;;;;;;;6.47;1.95;;;;;;;11.64;57.78;102235.03;4987222;28;20487;-68
2023/05/18 04:04:26;;;;;;;9.88;2.10;;;;;;;12.14;56.50;102236.47;4968204;28;20314;-66
2023/05/18 04:06:55;;;;;;;5.30;2.40;;;;;;;12.37;55.96;102242.75;4967973;28;20258;-67
2023/05/18 04:09:26;;;;;;;5.00;2.30;;;;;;;12.58;54.99;102247.50;4973316;28;20706;-67
2023/05/18 04:11:56;;;;;;;7.20;3.20;;;;;;;12.43;54.56;102236.59;4968308;28;20323;-66
2023/05/18 04:14:26;;;;;;;6.40;2.10;;;;;;;12.90;53.78;102235.50;4968441;28;20455;-67
2023/05/18 04:17:03;;;;;;;11.00;3.57;;;;;;;13.15;53.06;102236.13;4966944;28;20211;-70
2023/05/18 04:19:32;;;;;;;4.43;2.33;;;;;;;13.62;51.38;102236.56;4974399;28;20904;-68
2023/05/18 04:22:03;;;;;;;6.47;2.70;;;;;;;14.03;50.63;102236.84;4975396;28;20779;-68
2023/05/18 04:24:33;;;;;;;11.03;2.67;;;;;;;14.23;49.43;102246.06;4966165;28;20472;-67
2023/05/18 04:27:04;;;;;;;6.70;2.40;;;;;;;14.20;49.38;102243.72;4972366;28;20565;-68
2023/05/18 04:29:33;;;;;;;4.20;2.53;;;;;;;13.40;51.45;102246.53;4969890;28;20454;-67
2023/05/18 04:32:03;;;;;;;7.57;3.00;;;;;;;13.68;50.93;102248.56;4967863;28;20528;-68
2023/05/18 04:34:34;;;;;;;4.50;2.37;;;;;;;13.67;50.60;102252.31;4972385;28;20471;-66
2023/05/18 04:37:04;;;;;;;7.30;2.07;;;;;;;13.06;52.21;102254.34;4975850;28;20517;-70
2023/05/18 04:39:34;;;;;;;4.63;1.70;;;;;;;13.78;50.57;102257.28;4974498;28;20515;-68
2023/05/18 04:42:09;;;;;;;6.27;2.37;;;;;;;13.36;51.67;102258.78;4973057;28;20474;-68
2023/05/18 04:44:38;;;;;;;6.00;1.67;;;;;;;13.56;52.06;102258.22;4971679;28;20523;-68
2023/05/18 04:47:09;;;;;;;5.30;3.10;;;;;;;13.78;51.26;102255.41;4971910;28;20420;-67
2023/05/18 04:49:39;;;;;;;5.17;2.00;;;;;;;13.67;50.50;102265.91;4970449;28;20533;-67
2023/05/18 04:52:10;;;;;;;4.47;1.60;;;;;;;14.57;49.17;102263.63;4973323;28;20453;-67
2023/05/18 04:54:40;;;;;;;6.17;2.30;;;;;;;14.29;49.67;102268.94;4965602;28;20548;-68
2023/05/18 04:57:11;;;;;;;9.70;2.43;;;;;;;14.48;48.91;102264.78;5006595;23;20487;-80
2023/05/18 04:59:46;;;;;;;3.73;1.67;;;;;;;15.16;47.60;102264.09;5024209;28;20419;-81
2023/05/18 05:02:17;;;;;;;4.40;2.20;;;;;;;14.59;47.99;102273.28;5006283;28;20439;-81
2023/05/18 05:04:47;;;;;;;9.50;2.27;;;;;;;13.97;49.89;102267.56;4998683;28;20421;-79
2023/05/18 05:07:16;;;;;;;6.27;2.73;;;;;;;14.86;48.44;102270.78;5010309;28;20453;-81
2023/05/18 05:09:47;;;;;;;2.90;1.37;;;;;;;14.57;48.76;102272.63;5004755;28;20958;-79
2023/05/18 05:12:16;;;;;;;4.43;2.20;;;;;;;15.83;46.39;102269.75;4995008;28;20461;-80
2023/05/18 05:14:46;;;;;;;8.03;2.07;;;;;;;15.88;46.36;102261.78;4997005;28;20435;-80
2023/05/18 05:17:17;;;;;;;6.17;2.47;;;;;;;16.59;44.60;102270.41;5009973;28;20522;-82
2023/05/18 05:19:47;;;;;;;4.90;1.83;;;;;;;15.94;45.74;102271.91;5007774;28;20425;-80
2023/05/18 05:22:16;;;;;;;10.07;2.63;;;;;;;16.59;43.95;102270.41;5004666;28;20446;-81
2023/05/18 05:24:46;;;;;;;8.43;2.30;;;;;;;16.92;43.66;102271.25;5001949;28;20473;-80
2023/05/18 05:27:15;;;;;;;10.10;2.03;;;;;;;14.55;48.13;102268.41;4994648;28;20469;-81
2023/05/18 05:29:46;;;;;;;6.27;2.50;;;;;;;12.43;54.00;102269.19;4995901;28;20513;-81
2023/05/18 05:32:17;;;;;;;5.03;1.90;;;;;;;11.53;57.58;102276.06;5003366;28;20466;-80
2023/05/18 05:34:49;;;;;;;4.90;2.00;;;;;;;10.79;60.31;102274.56;5001022;28;20438;-80
2023/05/18 05:37:20;;;;;;;7.23;2.00;;;;;;;10.42;62.93;102279.59;4998697;28;20587;-83
2023/05/18 05:39:50;;;;;;;7.10;2.50;;;;;;;10.26;63.52;102279.59;5004367;28;20443;-81
2023/05/18 05:42:20;;;;;;;3.50;1.83;;;;;;;10.08;64.07;102281.53;4987760;28;20199;-81
2023/05/18 05:44:49;;;;;;;12.65;2.65;;;;;;;9.80;65.61;102283.66;4988476;28;20257;-81
2023/05/18 05:47:20;;;;;;;5.30;2.10;;;;;;;9.88;66.04;102292.63;5005107;28;20256;-81
2023/05/18 05:49:50;;;;;;;5.88;1.83;;;;;;;10.02;65.35;102293.88;4997843;28;20200;-79
2023/05/18 05:52:19;;;;;;;4.47;2.20;;;;;;;10.07;65.83;102285.28;5022600;28;20209;-82
2023/05/18 05:54:49;;;;;;;5.28;2.10;;;;;;;10.44;65.00;102297.38;5001667;28;20203;-80
2023/05/18 05:57:18;;;;;;;6.65;2.30;;;;;;;10.40;64.12;102293.31;4988920;28;20330;-80
2023/05/18 05:59:48;;;;;;;4.75;2.78;;;;;;;10.19;64.77;102294.78;5003351;28;20189;-79
2023/05/18 06:02:19;;;;;;;9.95;3.03;;;;;;;10.43;64.73;102302.94;5011251;28;20194;-80
2023/05/18 06:04:48;;;;;;;8.45;2.85;;;;;;;10.64;63.79;102300.63;5005959;28;20204;-80
2023/05/18 06:07:18;;;;;;;7.05;2.17;;;;;;;10.87;63.35;102293.50;5010912;28;20229;-77
2023/05/18 06:09:49;;;;;;;11.35;2.50;;;;;;;10.97;62.74;102296.03;4998966;28;20378;-79
2023/05/18 06:12:19;;;;;;;12.70;4.60;;;;;;;11.08;62.25;102302.97;4986737;28;20218;-80
2023/05/18 06:14:51;;;;;;;5.27;2.23;;;;;;;10.77;63.12;102300.94;4999156;28;20212;-80
2023/05/18 06:17:23;;;;;;;9.70;3.90;;;;;;;11.00;62.83;102294.81;4996372;28;20493;-78
2023/05/18 06:19:52;;;;;;;9.80;2.00;;;;;;;10.88;63.01;102292.50;5003834;28;20437;-77
2023/05/18 06:22:23;;;;;;;7.50;3.00;;;;;;;10.99;63.13;102293.97;5010597;28;20183;-82
2023/05/18 06:25:11;;;;;;;4.27;2.00;;;;;;;11.26;62.68;102295.47;5000714;28;20429;-78
2023/05/18 06:27:56;;;;;;;4.63;2.43;;;;;;;11.49;61.24;102301.00;5000174;28;20483;-81
2023/05/18 06:30:42;;;;;;;4.20;2.43;;;;;;;11.66;60.96;102297.22;4997207;28;20789;-79
2023/05/18 06:33:19;;;;;;;9.70;2.70;;;;;;;11.81;60.57;102298.22;4992778;28;20469;-82
2023/05/18 06:35:49;;;;;;;6.20;1.87;;;;;;;11.70;59.46;102294.00;4984114;28;20477;-78
2023/05/18 06:41:26;;;;;;;8.97;2.83;;;;;;;11.95;60.32;102311.03;5001356;28;20447;-82
2023/05/18 06:43:59;;;;;;;6.23;2.10;;;;;;;12.09;60.01;102309.44;5013560;28;20441;-79
2023/05/18 06:46:38;;;;;;;8.40;5.57;;;;;;;12.31;58.32;102313.19;5004283;28;20517;-83
2023/05/18 06:49:16;;;;;;;12.27;2.80;;;;;;;12.26;58.29;102312.88;4991671;28;20473;-79
2023/05/18 06:51:45;;;;;;;10.23;3.60;;;;;;;12.26;58.25;102311.00;5003978;28;20437;-76
2023/05/18 06:54:15;;;;;;;9.00;1.87;;;;;;;12.18;58.65;102305.66;5009084;28;20480;-79
2023/05/18 06:56:45;;;;;;;9.13;2.70;;;;;;;12.38;58.19;102311.47;5000810;28;20448;-81
2023/05/18 06:59:14;;;;;;;7.07;2.70;;;;;;;12.39;58.10;102313.97;4992895;28;20498;-83
2023/05/18 07:01:44;;;;;;;15.17;4.80;;;;;;;12.55;58.32;102313.88;4990401;28;20525;-79
2023/05/18 07:04:18;;;;;;;6.03;2.37;;;;;;;12.89;56.48;102312.59;4987864;28;20435;-82
2023/05/18 07:06:47;;;;;;;11.80;2.20;;;;;;;12.83;55.84;102310.63;5002438;28;20439;-80
2023/05/18 07:09:17;;;;;;;8.30;3.23;;;;;;;12.83;56.23;102314.16;4993851;28;20479;-79
2023/05/18 07:11:46;;;;;;;6.47;2.07;;;;;;;12.84;55.81;102309.56;4995175;28;20422;-80
2023/05/18 07:14:16;;;;;;;3.70;2.00;;;;;;;12.74;55.96;102303.53;4993151;28;20464;-82
2023/05/18 07:16:46;;;;;;;8.03;2.13;;;;;;;13.03;54.88;102298.19;4994151;28;20433;-80
2023/05/18 07:19:16;;;;;;;7.23;2.37;;;;;;;13.07;54.68;102294.06;4990189;28;20404;-81
2023/05/18 07:21:46;;;;;;;8.63;3.87;;;;;;;12.92;54.64;102302.22;5002883;28;20420;-82
2023/05/18 07:24:21;;;;;;;7.23;2.10;;;;;;;13.08;54.12;102301.19;5002253;28;20468;-80
2023/05/18 07:26:53;;;;;;;12.43;2.80;;;;;;;13.12;54.24;102286.25;4992631;28;20441;-82
2023/05/18 07:29:25;;;;;;;7.43;2.77;;;;;;;12.82;55.37;102298.91;4986824;28;20436;-81
2023/05/18 07:31:55;;;;;;;4.83;2.13;;;;;;;12.63;55.53;102293.97;4998208;28;20529;-82
2023/05/18 07:34:26;;;;;;;4.57;2.23;;;;;;;13.04;54.95;102300.72;5001429;28;20462;-82
2023/05/18 07:36:55;;;;;;;5.63;1.80;;;;;;;13.29;53.05;102292.38;4991989;28;20498;-81
2023/05/18 07:39:27;;;;;;;3.20;1.57;;;;;;;13.26;51.10;102296.31;4994838;28;20507;-80
2023/05/18 07:41:57;;;;;;;9.90;2.30;;;;;;;13.62;50.65;102290.13;4991022;28;20437;-79
2023/05/18 07:44:26;;;;;;;10.73;2.60;;;;;;;13.75;49.62;102293.00;4990736;28;20882;-81
2023/05/18 07:46:55;;;;;;;6.00;1.60;;;;;;;14.02;49.00;102300.50;4989980;28;20579;-82
2023/05/18 07:49:26;;;;;;;8.90;2.47;;;;;;;14.18;47.49;102294.81;5000970;28;20991;-81
2023/05/18 07:51:58;;;;;;;9.17;2.47;;;;;;;14.16;47.89;102296.03;5002209;28;20441;-80
2023/05/18 07:54:27;;;;;;;7.57;2.00;;;;;;;14.71;47.09;102288.06;5007415;28;20443;-80
2023/05/18 07:56:57;;;;;;;9.30;2.60;;;;;;;15.02;46.45;102295.88;5009670;28;20477;-81
2023/05/18 07:59:29;;;;;;;6.70;2.30;;;;;;;15.02;45.47;102284.97;5011115;28;20435;-78
2023/05/18 08:01:58;;;;;;;8.77;2.50;;;;;;;14.85;46.29;102297.22;5004030;28;20455;-80
2023/05/18 08:04:29;;;;;;;5.00;2.30;;;;;;;15.25;45.08;102297.53;5007163;28;20494;-79
2023/05/18 08:07:00;;;;;;;7.07;2.13;;;;;;;15.48;44.60;102295.38;5013927;28;20463;-79
2023/05/18 08:09:30;;;;;;;4.73;1.83;;;;;;;15.54;44.56;102298.16;5005217;28;20409;-79
2023/05/18 08:12:00;;;;;;;6.93;1.67;;;;;;;15.69;44.01;102299.91;5026602;28;20429;-81
2023/05/18 08:14:30;;;;;;;7.07;1.60;;;;;;;15.59;43.67;102303.00;5003458;28;20464;-79
2023/05/18 08:16:59;;;;;;;9.20;2.10;;;;;;;15.95;42.70;102298.16;5016172;28;20451;-80
2023/05/18 08:19:30;;;;;;;5.47;1.80;;;;;;;15.75;42.40;102299.94;5002883;28;20438;-80
2023/05/18 08:21:59;;;;;;;6.23;2.23;;;;;;;15.19;44.53;102305.47;4996533;28;20587;-81
2023/05/18 08:24:28;;;;;;;6.20;2.20;;;;;;;14.39;44.80;102301.34;5005739;28;20434;-78
2023/05/18 08:26:57;;;;;;;7.00;2.87;;;;;;;14.18;45.77;102311.16;5010092;28;20438;-83
2023/05/18 08:29:27;;;;;;;5.70;1.83;;;;;;;14.32;45.66;102307.56;5003155;28;20449;-82
2023/05/18 08:31:56;;;;;;;9.57;2.80;;;;;;;14.57;45.95;102307.22;5002491;28;20496;-78
2023/05/18 08:34:25;;;;;;;9.57;2.10;;;;;;;14.48;46.07;102308.34;5005053;28;20496;-80
2023/05/18 08:37:04;;;;;;;3.27;2.07;;;;;;;14.18;45.63;102315.75;5017421;28;20488;-80
2023/05/18 08:39:36;;;;;;;5.57;2.13;;;;;;;13.83;45.95;102311.97;5013711;28;20413;-84
2023/05/18 08:42:19;;;;;;;5.60;1.33;;;;;;;13.96;46.19;102309.41;5021262;28;20497;-83
2023/05/18 08:44:58;;;;;;;3.10;1.40;;;;;;;14.31;44.78;102305.88;4994311;28;20443;-82
2023/05/18 08:47:30;;;;;;;8.13;2.13;;;;;;;14.98;44.10;102302.75;5005469;28;20430;-81
2023/05/18 08:50:05;;;;;;;5.60;1.80;;;;;;;15.71;42.36;102298.66;4992057;28;20426;-80
2023/05/18 08:52:39;;;;;;;5.37;1.80;;;;;;;15.69;41.87;102306.22;4997140;28;20423;-78
2023/05/18 08:55:11;;;;;;;7.47;2.03;;;;;;;15.21;41.96;102303.34;4997329;28;20567;-81
2023/05/18 08:57:42;;;;;;;4.67;1.43;;;;;;;14.84;42.50;102300.13;4998380;28;20515;-80
2023/05/18 09:00:16;;;;;;;3.00;1.40;;;;;;;14.93;42.54;102299.78;4997437;28;20436;-81
2023/05/18 09:02:47;;;;;;;5.13;2.50;;;;;;;15.19;42.00;102304.63;5015359;28;20484;-77
2023/05/18 09:05:18;;;;;;;6.43;2.03;;;;;;;15.86;40.84;102307.56;5009931;28;20443;-79
2023/05/18 09:07:49;;;;;;;4.80;1.43;;;;;;;16.06;40.01;102303.03;5002281;28;20433;-82
2023/05/18 09:10:19;;;;;;;3.57;1.40;;;;;;;15.97;39.97;102303.44;5003723;28;20437;-78
2023/05/18 09:12:50;;;;;;;5.03;2.27;;;;;;;16.03;40.30;102306.16;5011269;28;20463;-78
2023/05/18 09:15:20;;;;;;;6.03;1.80;;;;;;;15.38;42.49;102303.06;5009832;28;20519;-77
2023/05/18 09:17:50;;;;;;;7.70;2.10;;;;;;;15.25;43.10;102298.34;5004847;28;20784;-81
2023/05/18 09:20:20;;;;;;;4.07;2.00;;;;;;;15.43;42.28;102306.88;5000221;28;20406;-80
2023/05/18 09:22:51;;;;;;;5.13;1.67;;;;;;;15.69;41.62;102303.47;5006502;28;20452;-79
2023/05/18 09:25:26;;;;;;;5.07;1.67;;;;;;;15.41;41.92;102302.66;4998640;28;20413;-78
2023/05/18 09:27:56;;;;;;;6.20;1.77;;;;;;;15.09;42.68;102296.78;5002509;28;20437;-77
2023/05/18 09:30:25;;;;;;;4.87;1.60;;;;;;;14.72;42.89;102299.78;5002196;28;20421;-79
2023/05/18 09:32:55;;;;;;;7.40;4.13;;;;;;;14.76;43.35;102298.38;5005326;28;20405;-80
2023/05/18 09:35:25;;;;;;;5.73;2.10;;;;;;;14.99;42.88;102295.44;5003785;28;20432;-81
2023/05/18 09:37:56;;;;;;;2.93;1.80;;;;;;;15.27;41.90;102288.09;5005551;28;20854;-79
2023/05/18 09:40:29;;;;;;;8.03;2.37;;;;;;;16.18;39.61;102288.78;5006817;28;21002;-78
2023/05/18 09:42:58;;;;;;;6.13;1.40;;;;;;;16.41;39.27;102286.53;5001936;28;20435;-78
2023/05/18 09:45:28;;;;;;;7.50;2.83;;;;;;;16.43;38.59;102287.16;5010296;28;20411;-79
2023/05/18 09:47:58;;;;;;;4.10;1.73;;;;;;;16.46;39.01;102276.66;5008837;28;20440;-76
2023/05/18 09:50:27;;;;;;;4.00;1.60;;;;;;;16.70;38.53;102283.44;4997701;28;20408;-79
2023/05/18 09:53:05;;;;;;;2.43;1.70;;;;;;;16.05;40.04;102282.22;4993226;28;20411;-78
2023/05/18 09:55:38;;;;;;;3.80;2.60;;;;;;;16.21;39.38;102277.44;4998463;28;20465;-80
2023/05/18 09:58:08;;;;;;;3.30;1.40;;;;;;;15.91;39.87;102288.69;5000195;28;20433;-78
2023/05/18 10:00:42;;;;;;;7.93;2.13;;;;;;;15.95;40.20;102278.19;4997752;28;20459;-81
2023/05/18 10:03:19;;;;;;;2.90;1.33;;;;;;;15.83;39.78;102277.13;4994025;28;20446;-81
2023/05/18 10:05:49;;;;;;;5.33;2.07;;;;;;;15.59;40.52;102279.28;4994566;28;20427;-78
2023/05/18 10:08:20;;;;;;;7.10;1.63;;;;;;;15.78;40.34;102271.41;4993865;28;20413;-81
2023/05/18 10:10:50;;;;;;;4.23;1.57;;;;;;;15.78;40.15;102274.97;4999860;28;20434;-80
2023/05/18 10:13:20;;;;;;;6.73;1.77;;;;;;;15.85;40.40;102277.72;5002293;28;20447;-81
2023/05/18 10:15:52;;;;;;;6.50;2.43;;;;;;;15.84;40.40;102276.88;5002898;28;20481;-79
2023/05/18 10:18:24;;;;;;;5.70;2.07;;;;;;;15.63;40.60;102274.28;5002300;28;20439;-77
2023/05/18 10:20:55;;;;;;;3.90;1.50;;;;;;;15.83;41.19;102267.00;5005917;28;20408;-79
2023/05/18 10:23:33;;;;;;;6.57;2.20;;;;;;;15.80;41.18;102258.41;5004855;28;20417;-77
2023/05/18 10:26:08;;;;;;;4.40;1.83;;;;;;;15.49;41.62;102262.41;5013668;28;20393;-79
2023/05/18 10:28:42;;;;;;;5.80;1.70;;;;;;;15.16;41.51;102262.22;5003023;28;20435;-80
2023/05/18 10:31:11;;;;;;;5.30;2.10;;;;;;;15.00;42.42;102262.53;4997290;28;20540;-80
2023/05/18 10:33:41;;;;;;;5.97;1.93;;;;;;;15.26;41.92;102255.56;4991092;28;20844;-80
2023/05/18 10:36:11;;;;;;;3.00;2.00;;;;;;;15.20;41.90;102258.03;4994316;28;20452;-80
2023/05/18 10:38:44;;;;;;;9.43;2.00;;;;;;;15.32;41.47;102262.94;4991317;28;20427;-80
2023/05/18 10:41:15;;;;;;;4.80;1.53;;;;;;;15.00;41.78;102251.63;5016030;28;20483;-78
2023/05/18 10:43:46;;;;;;;5.60;1.50;;;;;;;14.65;42.17;102258.88;4995010;28;20507;-80
2023/05/18 10:46:17;;;;;;;6.80;1.97;;;;;;;14.76;41.86;102254.78;5009119;28;20449;-79
2023/05/18 10:48:51;;;;;;;6.10;1.83;;;;;;;15.15;41.23;102249.59;4997273;28;20605;-82
2023/05/18 10:51:22;;;;;;;6.67;2.53;;;;;;;15.56;40.66;102246.97;4997523;28;20779;-80
2023/05/18 10:54:08;;;;;;;4.50;1.87;;;;;;;15.70;40.33;102247.00;4996601;28;20733;-80
2023/05/18 10:56:38;;;;;;;7.17;2.37;;;;;;;15.64;39.73;102243.19;5002157;28;20467;-80
2023/05/18 10:59:08;;;;;;;4.70;2.13;;;;;;;15.99;39.47;102247.56;4985993;28;20430;-79
2023/05/18 11:01:40;;;;;;;3.87;1.17;;;;;;;16.26;38.94;102236.72;4983467;28;20508;-80
2023/05/18 11:04:10;;;;;;;5.00;1.70;;;;;;;16.05;38.73;102244.00;4982600;28;20789;-78
2023/05/18 11:06:43;;;;;;;9.03;1.70;;;;;;;15.46;39.98;102229.22;4986061;28;21008;-78
2023/05/18 11:09:23;;;;;;;4.13;1.73;;;;;;;15.34;40.42;102244.50;4983209;28;20409;-76
2023/05/18 11:11:55;;;;;;;3.97;1.47;;;;;;;15.89;40.06;102238.06;4989924;28;20400;-81
2023/05/18 11:14:29;;;;;;;4.90;1.40;;;;;;;16.01;38.77;102248.19;4979911;28;20449;-76
2023/05/18 11:17:21;;;;;;;4.00;2.03;;;;;;;16.37;38.42;102245.13;4983641;28;20482;-78
2023/05/18 11:20:17;;;;;;;3.67;1.90;;;;;;;16.60;38.04;102247.50;4990428;28;20418;-78
2023/05/18 11:22:48;;;;;;;5.53;1.80;;;;;;;17.26;37.59;102239.25;4989900;28;20467;-79
2023/05/18 11:25:38;;;;;;;5.23;1.87;;;;;;;17.61;35.45;102234.34;4985173;28;20412;-76
2023/05/18 11:28:09;;;;;;;3.63;1.30;;;;;;;17.91;35.65;102234.63;4980604;28;20448;-77
2023/05/18 11:30:52;;;;;;;6.17;1.53;;;;;;;17.92;35.84;102237.13;4991263;28;20517;-78
2023/05/18 11:33:27;;;;;;;4.57;1.60;;;;;;;18.02;35.90;102228.44;4987054;28;20419;-77
2023/05/18 11:36:03;;;;;;;5.70;2.00;;;;;;;17.81;35.98;102230.44;4983119;28;20485;-76
2023/05/18 11:39:03;;;;;;;4.47;1.50;;;;;;;17.36;36.46;102225.97;4989630;28;20472;-78
2023/05/18 11:41:38;;;;;;;4.57;1.83;;;;;;;17.76;36.22;102230.28;4916311;29;20466;-77
2023/05/18 11:44:18;;;;;;;4.13;1.40;;;;;;;17.85;35.23;102227.28;4965835;28;20524;-78
2023/05/18 11:47:01;;;;;;;7.37;1.80;;;;;;;18.34;35.29;102221.09;4981248;28;20432;-78
2023/05/18 11:49:32;;;;;;;3.40;1.63;;;;;;;18.76;35.21;102214.03;4988073;28;20943;-76
2023/05/18 11:52:07;;;;;;;7.30;2.70;;;;;;;18.74;34.41;102217.00;4983513;28;21060;-78